Time;durP1;ratioP1;P1;durP2;ratioP2;P2;SDS_P1;SDS_P2;PMS_P1;PMS_P2;Temp;Humidity;BMP_temperature;BMP_pressure;BME280_temperature;BME280_humidity;BME280_pressure;Samples;Min_cycle;Max_cycle;Signal;HPM_P1;HPM_P2
2022/12/16 00:01:37;;;;;;;50.10;24.60;;;0.00;99.90;;;;;;5025958;28;20026;-78
2022/12/16 00:04:03;;;;;;;48.42;24.92;;;-0.10;99.90;;;;;;5017653;28;20022;-77
2022/12/16 00:06:33;;;;;;;46.17;23.23;;;-0.10;99.90;;;;;;5036922;28;20073;-78
2022/12/16 00:08:59;;;;;;;47.35;24.75;;;0.10;99.90;;;;;;5035678;28;20021;-77
2022/12/16 00:11:25;;;;;;;38.58;19.95;;;0.20;99.90;;;;;;5038587;28;20068;-78
2022/12/16 00:13:52;;;;;;;41.15;20.92;;;0.40;99.90;;;;;;5056644;28;20009;-78
2022/12/16 00:16:19;;;;;;;32.55;20.55;;;0.50;99.90;;;;;;5057717;28;20036;-77
2022/12/16 00:18:46;;;;;;;33.08;14.63;;;0.50;99.90;;;;;;5050650;28;20042;-78
2022/12/16 00:21:12;;;;;;;35.70;18.00;;;0.60;99.90;;;;;;5049982;28;20029;-77
2022/12/16 00:23:40;;;;;;;28.20;16.25;;;0.60;99.90;;;;;;5054299;28;20105;-78
2022/12/16 00:26:06;;;;;;;28.58;17.30;;;0.60;99.90;;;;;;5038724;28;20060;-78
2022/12/16 00:28:32;;;;;;;30.42;18.05;;;0.70;99.90;;;;;;5036110;28;20556;-77
2022/12/16 00:30:57;;;;;;;31.95;15.75;;;0.70;99.90;;;;;;5034799;28;20452;-77
2022/12/16 00:33:26;;;;;;;35.17;16.73;;;0.70;99.90;;;;;;5036166;28;20378;-77
2022/12/16 00:35:52;;;;;;;26.85;14.93;;;0.60;99.90;;;;;;5035634;28;20017;-77
2022/12/16 00:38:19;;;;;;;24.48;14.98;;;0.60;99.90;;;;;;5036178;28;20026;-78
2022/12/16 00:40:45;;;;;;;28.85;14.05;;;1.30;99.90;;;;;;5036006;28;20033;-77
2022/12/16 00:43:10;;;;;;;22.23;13.38;;;0.40;99.90;;;;;;5035092;28;20017;-78
2022/12/16 00:45:37;;;;;;;21.20;12.25;;;0.40;99.90;;;;;;5035170;28;20040;-78
2022/12/16 00:48:03;;;;;;;20.60;12.48;;;0.30;99.90;;;;;;5034820;28;20024;-77
2022/12/16 00:50:29;;;;;;;26.67;12.82;;;0.30;99.90;;;;;;5034249;28;20374;-78
2022/12/16 00:52:56;;;;;;;24.23;12.40;;;0.20;99.90;;;;;;5035572;28;20045;-77
2022/12/16 00:55:22;;;;;;;29.23;13.68;;;0.10;99.90;;;;;;5036220;28;20056;-78
2022/12/16 00:57:48;;;;;;;24.45;12.05;;;0.10;99.90;;;;;;5034727;28;20454;-78
2022/12/16 01:00:15;;;;;;;19.92;12.00;;;0.10;99.90;;;;;;5035252;28;20034;-78
2022/12/16 01:02:42;;;;;;;18.48;11.02;;;0.00;99.90;;;;;;5036292;28;20026;-77
2022/12/16 01:05:10;;;;;;;20.17;11.52;;;0.00;99.90;;;;;;5034957;28;20462;-76
2022/12/16 01:07:36;;;;;;;18.33;9.68;;;-0.10;99.90;;;;;;5035282;28;20390;-78
2022/12/16 01:10:03;;;;;;;18.40;10.13;;;-0.10;99.90;;;;;;5035939;28;20021;-77
2022/12/16 01:12:29;;;;;;;22.08;11.15;;;-0.10;99.90;;;;;;5036385;28;20355;-77
2022/12/16 01:14:54;;;;;;;19.65;10.90;;;-0.10;99.90;;;;;;5035153;28;20048;-79
2022/12/16 01:17:20;;;;;;;22.92;12.77;;;-0.20;99.90;;;;;;5034887;28;20026;-78
2022/12/16 01:19:45;;;;;;;21.30;10.38;;;-0.20;99.90;;;;;;5030439;28;20046;-78
2022/12/16 01:22:11;;;;;;;15.40;10.13;;;-0.20;99.90;;;;;;5024313;28;20105;-78
2022/12/16 01:24:36;;;;;;;17.00;9.77;;;-0.20;99.90;;;;;;5034476;28;20393;-78
2022/12/16 01:27:02;;;;;;;16.25;9.68;;;-0.20;99.90;;;;;;5034211;28;20385;-78
2022/12/16 01:29:28;;;;;;;13.13;8.27;;;-0.10;99.90;;;;;;5035347;28;20378;-78
2022/12/16 01:31:53;;;;;;;18.27;9.60;;;-0.10;99.90;;;;;;5021493;28;20042;-77
2022/12/16 01:34:19;;;;;;;13.20;7.55;;;0.00;99.90;;;;;;5033693;28;20423;-78
2022/12/16 01:36:44;;;;;;;10.10;7.68;;;0.00;99.90;;;;;;5033643;28;20032;-78
2022/12/16 01:39:10;;;;;;;9.50;6.68;;;0.10;99.90;;;;;;5034377;28;20022;-78
2022/12/16 01:41:36;;;;;;;12.55;7.65;;;0.10;99.90;;;;;;5034802;28;20083;-77
2022/12/16 01:44:19;;;;;;;13.88;7.13;;;0.20;99.90;;;;;;5034883;28;20014;-77
2022/12/16 01:46:49;;;;;;;13.15;6.63;;;0.10;99.90;;;;;;5034938;28;20045;-78
2022/12/16 01:50:03;;;;;;;8.45;6.80;;;0.20;99.90;;;;;;5035501;28;20109;-77
2022/12/16 01:52:35;;;;;;;12.73;6.85;;;0.10;99.90;;;;;;5025720;28;20037;-78
2022/12/16 01:55:12;;;;;;;12.30;7.13;;;0.10;99.90;;;;;;5033946;28;20053;-78
2022/12/16 01:57:48;;;;;;;9.55;6.40;;;0.10;99.90;;;;;;5033519;28;20040;-78
2022/12/16 02:00:14;;;;;;;7.07;6.10;;;0.00;99.90;;;;;;5034301;28;20108;-78
2022/12/16 02:02:44;;;;;;;8.85;6.72;;;0.00;99.90;;;;;;5034129;28;20534;-77
2022/12/16 02:05:19;;;;;;;7.85;4.93;;;0.00;99.90;;;;;;5033992;28;20083;-78
2022/12/16 02:08:01;;;;;;;9.60;5.80;;;0.00;99.90;;;;;;5033192;28;20120;-78
2022/12/16 02:11:00;;;;;;;11.30;5.50;;;-0.10;99.90;;;;;;5033357;28;20040;-77
2022/12/16 02:13:49;;;;;;;7.22;5.22;;;-0.10;99.90;;;;;;5024998;28;20036;-78
2022/12/16 02:16:22;;;;;;;16.23;5.28;;;-0.30;99.90;;;;;;5034110;28;20022;-78
2022/12/16 02:19:22;;;;;;;7.28;5.00;;;-0.10;99.90;;;;;;5034351;28;20053;-77
2022/12/16 02:21:57;;;;;;;5.82;4.35;;;-0.30;99.90;;;;;;5031778;28;20096;-77
2022/12/16 02:24:42;;;;;;;12.52;4.78;;;-0.30;99.90;;;;;;5033772;28;20116;-79
2022/12/16 02:27:16;;;;;;;8.70;4.55;;;-0.30;99.90;;;;;;5021814;28;20060;-77
2022/12/16 02:30:01;;;;;;;9.48;4.85;;;-0.40;99.90;;;;;;5032795;28;20373;-78
2022/12/16 02:32:49;;;;;;;12.02;5.45;;;-0.40;99.90;;;;;;5033489;28;20041;-77
2022/12/16 02:35:40;;;;;;;10.07;4.75;;;-0.40;99.90;;;;;;5027894;28;20077;-77
2022/12/16 02:38:19;;;;;;;13.75;4.45;;;-0.30;99.90;;;;;;5028090;28;20025;-77
2022/12/16 02:40:56;;;;;;;7.80;3.88;;;-0.30;99.90;;;;;;5033741;28;20033;-79
2022/12/16 02:43:21;;;;;;;7.85;3.92;;;-0.30;99.90;;;;;;5032700;28;20017;-78
2022/12/16 02:45:49;;;;;;;6.75;3.97;;;-0.20;99.90;;;;;;5019898;28;20041;-77
2022/12/16 02:48:14;;;;;;;6.20;3.83;;;-0.10;99.90;;;;;;5035303;28;20025;-77
2022/12/16 02:50:48;;;;;;;6.93;3.42;;;-0.10;99.90;;;;;;5034286;28;20029;-77
2022/12/16 02:53:14;;;;;;;9.88;3.47;;;-0.10;99.90;;;;;;5033592;28;20128;-77
2022/12/16 02:55:58;;;;;;;10.98;3.67;;;-0.10;99.90;;;;;;5033361;28;20025;-78
2022/12/16 02:58:34;;;;;;;7.65;3.05;;;-0.20;99.90;;;;;;5032859;28;20031;-78
2022/12/16 03:01:09;;;;;;;4.15;2.90;;;-0.10;99.90;;;;;;5030690;28;20081;-79
2022/12/16 03:03:45;;;;;;;6.10;2.80;;;-0.10;99.90;;;;;;5024480;28;20068;-79
2022/12/16 03:06:14;;;;;;;9.43;3.33;;;-0.20;99.90;;;;;;5033554;28;20431;-78
2022/12/16 03:08:47;;;;;;;3.83;2.78;;;-0.20;99.90;;;;;;5036487;28;20032;-77
2022/12/16 03:11:13;;;;;;;8.30;2.70;;;-0.20;99.90;;;;;;5036323;28;20084;-76
2022/12/16 03:13:43;;;;;;;8.50;3.13;;;-0.20;99.90;;;;;;5037300;28;20441;-78
2022/12/16 03:16:12;;;;;;;6.13;2.80;;;-0.30;99.90;;;;;;5036516;28;20033;-77
2022/12/16 03:18:41;;;;;;;13.18;2.47;;;-0.40;99.90;;;;;;5036333;28;20017;-78
2022/12/16 03:21:08;;;;;;;4.47;3.20;;;-0.40;99.90;;;;;;5036204;28;20037;-78
2022/12/16 03:23:48;;;;;;;6.72;3.00;;;-0.40;99.90;;;;;;5037077;28;20021;-76
2022/12/16 03:26:41;;;;;;;11.23;2.85;;;-0.40;99.90;;;;;;5027715;28;20068;-76
2022/12/16 03:29:14;;;;;;;10.43;2.65;;;-0.50;99.90;;;;;;5034723;28;20026;-78
2022/12/16 03:32:00;;;;;;;8.50;2.20;;;-0.60;99.90;;;;;;5033851;28;20084;-78
2022/12/16 03:34:34;;;;;;;9.15;2.40;;;-0.60;99.90;;;;;;5030269;28;20113;-78
2022/12/16 03:37:04;;;;;;;15.27;2.55;;;-0.60;99.90;;;;;;5037069;28;20432;-76
2022/12/16 03:39:33;;;;;;;;;;;-0.70;99.90;;;;;;5038947;28;20045;-78
2022/12/16 03:42:00;;;;;;;5.70;2.10;;;-0.70;99.90;;;;;;5042507;28;19909;-79
2022/12/16 03:44:26;;;;;;;7.15;2.95;;;-0.70;99.90;;;;;;5044976;28;20045;-77
2022/12/16 03:46:52;;;;;;;5.88;2.25;;;-0.70;99.90;;;;;;5043214;28;20029;-77
2022/12/16 03:49:18;;;;;;;10.15;2.95;;;0.20;99.90;;;;;;5046366;28;20077;-78
2022/12/16 03:51:43;;;;;;;9.07;2.75;;;-0.80;99.90;;;;;;5041237;28;20061;-77
2022/12/16 03:54:09;;;;;;;10.07;3.08;;;-0.80;99.90;;;;;;5039340;28;20501;-79
2022/12/16 03:56:34;;;;;;;8.75;2.60;;;-0.80;99.90;;;;;;5035994;28;20382;-77
2022/12/16 03:59:00;;;;;;;5.78;2.25;;;-0.80;99.90;;;;;;5036409;28;20102;-76
2022/12/16 04:01:26;;;;;;;5.57;2.50;;;-0.80;99.90;;;;;;5036049;28;20021;-80
2022/12/16 04:03:51;;;;;;;6.93;2.78;;;-0.70;99.90;;;;;;5036501;28;20119;-78
2022/12/16 04:06:17;;;;;;;10.52;2.70;;;-0.70;99.90;;;;;;5022178;28;20048;-79
2022/12/16 04:08:46;;;;;;;7.22;2.55;;;-0.70;99.90;;;;;;5023898;28;20026;-78
2022/12/16 04:25:25;;;;;;;4.72;2.13;;;-0.90;99.90;;;;;;5036721;28;20545;-77
2022/12/16 04:27:50;;;;;;;5.07;2.10;;;-1.00;99.90;;;;;;5023432;28;20076;-77
2022/12/16 04:30:18;;;;;;;12.27;2.50;;;-1.00;99.90;;;;;;5033535;28;20041;-79
